sensor_id;sensor_type;location;lat;lon;timestamp;P1;durP1;ratioP1;P2;durP2;ratioP2
12878;SDS011;20617;49.476;10.986;2023-07-29T00:00:39;1.70;;;1.60;;
12878;SDS011;20617;49.476;10.986;2023-07-29T00:04:50;2.53;;;1.67;;
12878;SDS011;20617;49.476;10.986;2023-07-29T00:06:55;2.90;;;1.65;;
12878;SDS011;20617;49.476;10.986;2023-07-29T00:09:05;3.05;;;1.80;;
12878;SDS011;20617;49.476;10.986;2023-07-29T00:11:13;2.30;;;1.80;;
12878;SDS011;20617;49.476;10.986;2023-07-29T00:13:18;2.63;;;1.90;;
12878;SDS011;20617;49.476;10.986;2023-07-29T00:17:27;2.20;;;1.70;;
12878;SDS011;20617;49.476;10.986;2023-07-29T00:21:37;3.10;;;2.10;;
12878;SDS011;20617;49.476;10.986;2023-07-29T00:23:40;1.80;;;1.70;;
12878;SDS011;20617;49.476;10.986;2023-07-29T00:25:47;2.70;;;1.65;;
12878;SDS011;20617;49.476;10.986;2023-07-29T00:27:58;2.10;;;1.85;;
12878;SDS011;20617;49.476;10.986;2023-07-29T00:30:04;2.20;;;2.00;;
12878;SDS011;20617;49.476;10.986;2023-07-29T00:32:16;3.22;;;2.00;;
12878;SDS011;20617;49.476;10.986;2023-07-29T00:34:23;2.55;;;2.00;;
12878;SDS011;20617;49.476;10.986;2023-07-29T00:36:28;2.22;;;1.90;;
12878;SDS011;20617;49.476;10.986;2023-07-29T00:38:34;3.00;;;1.92;;
12878;SDS011;20617;49.476;10.986;2023-07-29T00:40:39;1.45;;;1.35;;
12878;SDS011;20617;49.476;10.986;2023-07-29T00:42:44;4.32;;;1.83;;
12878;SDS011;20617;49.476;10.986;2023-07-29T00:44:52;2.50;;;2.22;;
12878;SDS011;20617;49.476;10.986;2023-07-29T00:46:57;2.92;;;2.53;;
12878;SDS011;20617;49.476;10.986;2023-07-29T00:49:05;2.08;;;1.80;;
12878;SDS011;20617;49.476;10.986;2023-07-29T00:53:16;1.85;;;1.50;;
12878;SDS011;20617;49.476;10.986;2023-07-29T00:55:24;2.28;;;2.08;;
12878;SDS011;20617;49.476;10.986;2023-07-29T00:57:30;2.28;;;1.90;;
12878;SDS011;20617;49.476;10.986;2023-07-29T00:59:39;3.00;;;1.95;;
12878;SDS011;20617;49.476;10.986;2023-07-29T01:01:47;3.30;;;2.10;;
12878;SDS011;20617;49.476;10.986;2023-07-29T01:03:52;3.70;;;2.20;;
12878;SDS011;20617;49.476;10.986;2023-07-29T01:08:29;2.58;;;2.20;;
12878;SDS011;20617;49.476;10.986;2023-07-29T01:10:44;2.42;;;2.22;;
12878;SDS011;20617;49.476;10.986;2023-07-29T01:12:56;3.13;;;2.30;;
12878;SDS011;20617;49.476;10.986;2023-07-29T01:15:11;2.67;;;2.20;;
12878;SDS011;20617;49.476;10.986;2023-07-29T01:17:25;3.65;;;2.60;;
12878;SDS011;20617;49.476;10.986;2023-07-29T01:19:42;2.40;;;2.20;;
12878;SDS011;20617;49.476;10.986;2023-07-29T01:21:53;3.05;;;2.22;;
12878;SDS011;20617;49.476;10.986;2023-07-29T01:24:02;2.67;;;1.88;;
12878;SDS011;20617;49.476;10.986;2023-07-29T01:26:08;2.33;;;2.03;;
12878;SDS011;20617;49.476;10.986;2023-07-29T01:28:15;2.58;;;2.20;;
12878;SDS011;20617;49.476;10.986;2023-07-29T01:30:20;3.35;;;2.30;;
12878;SDS011;20617;49.476;10.986;2023-07-29T01:32:34;3.30;;;2.38;;
12878;SDS011;20617;49.476;10.986;2023-07-29T01:34:44;4.68;;;2.30;;
12878;SDS011;20617;49.476;10.986;2023-07-29T01:36:50;2.78;;;2.58;;
12878;SDS011;20617;49.476;10.986;2023-07-29T01:38:56;3.20;;;2.55;;
12878;SDS011;20617;49.476;10.986;2023-07-29T01:41:08;2.85;;;2.38;;
12878;SDS011;20617;49.476;10.986;2023-07-29T01:43:14;2.92;;;2.58;;
12878;SDS011;20617;49.476;10.986;2023-07-29T01:45:22;3.55;;;2.08;;
12878;SDS011;20617;49.476;10.986;2023-07-29T01:47:29;3.10;;;2.40;;
12878;SDS011;20617;49.476;10.986;2023-07-29T01:51:38;2.95;;;2.38;;
12878;SDS011;20617;49.476;10.986;2023-07-29T01:55:49;3.42;;;2.47;;
12878;SDS011;20617;49.476;10.986;2023-07-29T01:57:54;2.75;;;2.55;;
12878;SDS011;20617;49.476;10.986;2023-07-29T02:00:01;4.18;;;2.60;;
12878;SDS011;20617;49.476;10.986;2023-07-29T02:02:14;2.80;;;2.30;;
12878;SDS011;20617;49.476;10.986;2023-07-29T02:04:21;2.95;;;2.50;;
12878;SDS011;20617;49.476;10.986;2023-07-29T02:08:32;3.10;;;2.63;;
12878;SDS011;20617;49.476;10.986;2023-07-29T02:10:37;3.13;;;2.70;;
12878;SDS011;20617;49.476;10.986;2023-07-29T02:12:40;3.35;;;3.05;;
12878;SDS011;20617;49.476;10.986;2023-07-29T02:14:48;2.83;;;2.53;;
12878;SDS011;20617;49.476;10.986;2023-07-29T02:16:51;4.25;;;2.33;;
12878;SDS011;20617;49.476;10.986;2023-07-29T02:21:02;3.03;;;2.72;;
12878;SDS011;20617;49.476;10.986;2023-07-29T02:23:07;5.20;;;2.72;;
12878;SDS011;20617;49.476;10.986;2023-07-29T02:25:10;2.63;;;2.42;;
12878;SDS011;20617;49.476;10.986;2023-07-29T02:27:15;2.90;;;2.40;;
12878;SDS011;20617;49.476;10.986;2023-07-29T02:31:27;4.65;;;3.38;;
12878;SDS011;20617;49.476;10.986;2023-07-29T02:33:33;3.50;;;2.80;;
12878;SDS011;20617;49.476;10.986;2023-07-29T02:35:43;4.63;;;3.05;;
12878;SDS011;20617;49.476;10.986;2023-07-29T02:37:48;3.45;;;3.13;;
12878;SDS011;20617;49.476;10.986;2023-07-29T02:39:56;2.92;;;2.63;;
12878;SDS011;20617;49.476;10.986;2023-07-29T02:42:02;8.43;;;3.25;;
12878;SDS011;20617;49.476;10.986;2023-07-29T02:44:08;5.28;;;3.63;;
12878;SDS011;20617;49.476;10.986;2023-07-29T02:46:13;4.10;;;3.70;;
12878;SDS011;20617;49.476;10.986;2023-07-29T02:50:25;4.10;;;2.90;;
12878;SDS011;20617;49.476;10.986;2023-07-29T02:52:30;5.00;;;3.03;;
12878;SDS011;20617;49.476;10.986;2023-07-29T02:54:36;4.05;;;3.13;;
12878;SDS011;20617;49.476;10.986;2023-07-29T02:56:42;4.28;;;3.88;;
12878;SDS011;20617;49.476;10.986;2023-07-29T02:58:47;4.18;;;3.63;;
12878;SDS011;20617;49.476;10.986;2023-07-29T03:00:53;4.93;;;3.10;;
12878;SDS011;20617;49.476;10.986;2023-07-29T03:03:02;3.63;;;3.22;;
12878;SDS011;20617;49.476;10.986;2023-07-29T03:05:10;3.45;;;3.15;;
12878;SDS011;20617;49.476;10.986;2023-07-29T03:07:18;3.72;;;3.10;;
12878;SDS011;20617;49.476;10.986;2023-07-29T03:09:22;4.32;;;3.13;;
12878;SDS011;20617;49.476;10.986;2023-07-29T03:11:25;4.03;;;3.63;;
12878;SDS011;20617;49.476;10.986;2023-07-29T03:15:35;3.45;;;3.15;;
12878;SDS011;20617;49.476;10.986;2023-07-29T03:19:45;3.13;;;2.72;;
12878;SDS011;20617;49.476;10.986;2023-07-29T03:21:52;3.25;;;2.92;;
12878;SDS011;20617;49.476;10.986;2023-07-29T03:24:00;3.38;;;2.55;;
12878;SDS011;20617;49.476;10.986;2023-07-29T03:26:09;3.95;;;3.22;;
12878;SDS011;20617;49.476;10.986;2023-07-29T03:28:14;4.20;;;2.78;;
12878;SDS011;20617;49.476;10.986;2023-07-29T03:30:20;2.83;;;2.53;;
12878;SDS011;20617;49.476;10.986;2023-07-29T03:32:26;4.28;;;3.05;;
12878;SDS011;20617;49.476;10.986;2023-07-29T03:34:34;3.30;;;3.00;;
12878;SDS011;20617;49.476;10.986;2023-07-29T03:36:40;2.72;;;2.53;;
12878;SDS011;20617;49.476;10.986;2023-07-29T03:38:50;2.63;;;2.40;;
12878;SDS011;20617;49.476;10.986;2023-07-29T03:40:57;3.50;;;2.95;;
12878;SDS011;20617;49.476;10.986;2023-07-29T03:43:02;4.13;;;2.67;;
12878;SDS011;20617;49.476;10.986;2023-07-29T03:45:11;4.38;;;3.25;;
12878;SDS011;20617;49.476;10.986;2023-07-29T03:47:17;4.68;;;3.25;;
12878;SDS011;20617;49.476;10.986;2023-07-29T03:51:24;4.45;;;3.60;;
12878;SDS011;20617;49.476;10.986;2023-07-29T03:53:29;5.50;;;3.13;;
12878;SDS011;20617;49.476;10.986;2023-07-29T03:55:38;5.00;;;3.67;;
12878;SDS011;20617;49.476;10.986;2023-07-29T03:57:43;4.65;;;3.83;;
12878;SDS011;20617;49.476;10.986;2023-07-29T03:59:49;3.65;;;3.35;;
12878;SDS011;20617;49.476;10.986;2023-07-29T04:01:54;5.00;;;3.85;;
12878;SDS011;20617;49.476;10.986;2023-07-29T04:03:59;4.28;;;3.50;;
12878;SDS011;20617;49.476;10.986;2023-07-29T04:06:04;3.78;;;3.40;;
12878;SDS011;20617;49.476;10.986;2023-07-29T04:10:14;3.88;;;3.30;;
12878;SDS011;20617;49.476;10.986;2023-07-29T04:12:21;4.72;;;3.35;;
12878;SDS011;20617;49.476;10.986;2023-07-29T04:14:28;4.68;;;3.25;;
12878;SDS011;20617;49.476;10.986;2023-07-29T04:18:38;4.03;;;3.38;;
12878;SDS011;20617;49.476;10.986;2023-07-29T04:20:43;7.07;;;3.78;;
12878;SDS011;20617;49.476;10.986;2023-07-29T04:24:53;5.90;;;3.95;;
12878;SDS011;20617;49.476;10.986;2023-07-29T04:26:59;4.95;;;3.47;;
12878;SDS011;20617;49.476;10.986;2023-07-29T04:29:07;3.72;;;3.40;;
12878;SDS011;20617;49.476;10.986;2023-07-29T04:31:12;4.65;;;3.53;;
12878;SDS011;20617;49.476;10.986;2023-07-29T04:33:20;3.97;;;3.63;;
12878;SDS011;20617;49.476;10.986;2023-07-29T04:37:30;4.13;;;3.20;;
12878;SDS011;20617;49.476;10.986;2023-07-29T04:39:34;5.38;;;3.70;;
12878;SDS011;20617;49.476;10.986;2023-07-29T04:41:39;3.55;;;3.13;;
12878;SDS011;20617;49.476;10.986;2023-07-29T04:45:54;3.75;;;3.15;;
12878;SDS011;20617;49.476;10.986;2023-07-29T04:47:59;3.20;;;2.90;;
12878;SDS011;20617;49.476;10.986;2023-07-29T04:52:11;5.63;;;2.78;;
12878;SDS011;20617;49.476;10.986;2023-07-29T04:56:24;4.00;;;2.92;;
12878;SDS011;20617;49.476;10.986;2023-07-29T04:58:30;4.55;;;2.95;;
12878;SDS011;20617;49.476;10.986;2023-07-29T05:00:36;3.85;;;2.67;;
12878;SDS011;20617;49.476;10.986;2023-07-29T05:02:46;4.50;;;2.97;;
12878;SDS011;20617;49.476;10.986;2023-07-29T05:04:51;4.13;;;2.70;;
12878;SDS011;20617;49.476;10.986;2023-07-29T05:06:56;4.50;;;3.15;;
12878;SDS011;20617;49.476;10.986;2023-07-29T05:11:17;2.97;;;2.72;;
12878;SDS011;20617;49.476;10.986;2023-07-29T05:13:24;4.63;;;2.80;;
12878;SDS011;20617;49.476;10.986;2023-07-29T05:15:29;3.22;;;2.80;;
12878;SDS011;20617;49.476;10.986;2023-07-29T05:17:34;4.70;;;2.80;;
12878;SDS011;20617;49.476;10.986;2023-07-29T05:19:42;2.58;;;2.17;;
12878;SDS011;20617;49.476;10.986;2023-07-29T05:21:47;4.03;;;2.85;;
12878;SDS011;20617;49.476;10.986;2023-07-29T05:26:00;3.03;;;2.72;;
12878;SDS011;20617;49.476;10.986;2023-07-29T05:28:08;3.75;;;2.58;;
12878;SDS011;20617;49.476;10.986;2023-07-29T05:32:21;5.45;;;2.65;;
12878;SDS011;20617;49.476;10.986;2023-07-29T05:34:26;2.92;;;2.42;;
12878;SDS011;20617;49.476;10.986;2023-07-29T05:36:33;3.97;;;2.60;;
12878;SDS011;20617;49.476;10.986;2023-07-29T05:38:40;2.35;;;2.15;;
12878;SDS011;20617;49.476;10.986;2023-07-29T05:42:52;3.92;;;2.47;;
12878;SDS011;20617;49.476;10.986;2023-07-29T05:44:58;3.28;;;2.28;;
12878;SDS011;20617;49.476;10.986;2023-07-29T05:47:04;2.33;;;2.13;;
12878;SDS011;20617;49.476;10.986;2023-07-29T05:49:11;3.13;;;2.72;;
12878;SDS011;20617;49.476;10.986;2023-07-29T05:51:16;3.45;;;2.72;;
12878;SDS011;20617;49.476;10.986;2023-07-29T05:55:31;3.35;;;2.28;;
12878;SDS011;20617;49.476;10.986;2023-07-29T05:57:36;2.75;;;2.40;;
12878;SDS011;20617;49.476;10.986;2023-07-29T05:59:44;3.95;;;2.70;;
12878;SDS011;20617;49.476;10.986;2023-07-29T06:01:53;5.65;;;2.80;;
12878;SDS011;20617;49.476;10.986;2023-07-29T06:04:01;3.30;;;2.60;;
12878;SDS011;20617;49.476;10.986;2023-07-29T06:08:11;3.35;;;2.92;;
12878;SDS011;20617;49.476;10.986;2023-07-29T06:12:24;2.45;;;2.17;;
12878;SDS011;20617;49.476;10.986;2023-07-29T06:14:29;3.15;;;2.78;;
12878;SDS011;20617;49.476;10.986;2023-07-29T06:16:36;4.40;;;2.28;;
12878;SDS011;20617;49.476;10.986;2023-07-29T06:18:41;4.20;;;2.53;;
12878;SDS011;20617;49.476;10.986;2023-07-29T06:20:46;4.00;;;2.28;;
12878;SDS011;20617;49.476;10.986;2023-07-29T06:24:53;2.42;;;2.00;;
12878;SDS011;20617;49.476;10.986;2023-07-29T06:27:01;7.28;;;2.47;;
12878;SDS011;20617;49.476;10.986;2023-07-29T06:29:07;3.35;;;2.40;;
12878;SDS011;20617;49.476;10.986;2023-07-29T06:31:12;3.88;;;2.40;;
12878;SDS011;20617;49.476;10.986;2023-07-29T06:35:21;3.33;;;2.15;;
12878;SDS011;20617;49.476;10.986;2023-07-29T06:37:30;2.75;;;2.25;;
12878;SDS011;20617;49.476;10.986;2023-07-29T06:41:40;4.05;;;2.28;;
12878;SDS011;20617;49.476;10.986;2023-07-29T06:43:49;4.13;;;2.38;;
12878;SDS011;20617;49.476;10.986;2023-07-29T06:45:54;3.40;;;2.17;;
12878;SDS011;20617;49.476;10.986;2023-07-29T06:48:00;4.05;;;2.10;;
12878;SDS011;20617;49.476;10.986;2023-07-29T06:52:07;7.05;;;2.53;;
12878;SDS011;20617;49.476;10.986;2023-07-29T06:54:12;4.38;;;2.20;;
12878;SDS011;20617;49.476;10.986;2023-07-29T06:56:17;4.28;;;2.25;;
12878;SDS011;20617;49.476;10.986;2023-07-29T06:58:22;2.55;;;2.35;;
12878;SDS011;20617;49.476;10.986;2023-07-29T07:00:30;4.15;;;2.40;;
12878;SDS011;20617;49.476;10.986;2023-07-29T07:02:38;5.45;;;2.10;;
12878;SDS011;20617;49.476;10.986;2023-07-29T07:04:43;2.58;;;1.90;;
12878;SDS011;20617;49.476;10.986;2023-07-29T07:06:49;3.45;;;2.28;;
12878;SDS011;20617;49.476;10.986;2023-07-29T07:08:54;2.53;;;1.73;;
12878;SDS011;20617;49.476;10.986;2023-07-29T07:13:03;2.30;;;1.83;;
12878;SDS011;20617;49.476;10.986;2023-07-29T07:17:16;3.15;;;1.90;;
12878;SDS011;20617;49.476;10.986;2023-07-29T07:19:22;3.90;;;2.00;;
12878;SDS011;20617;49.476;10.986;2023-07-29T07:21:27;3.58;;;1.70;;
12878;SDS011;20617;49.476;10.986;2023-07-29T07:23:34;2.88;;;1.75;;
12878;SDS011;20617;49.476;10.986;2023-07-29T07:27:44;4.47;;;2.30;;
12878;SDS011;20617;49.476;10.986;2023-07-29T07:29:50;4.07;;;1.70;;
12878;SDS011;20617;49.476;10.986;2023-07-29T07:34:03;3.33;;;1.48;;
12878;SDS011;20617;49.476;10.986;2023-07-29T07:36:08;6.22;;;1.45;;
12878;SDS011;20617;49.476;10.986;2023-07-29T07:40:17;2.55;;;1.83;;
12878;SDS011;20617;49.476;10.986;2023-07-29T07:42:23;4.47;;;1.80;;
12878;SDS011;20617;49.476;10.986;2023-07-29T07:46:33;3.53;;;1.58;;
12878;SDS011;20617;49.476;10.986;2023-07-29T07:48:36;2.55;;;1.30;;
12878;SDS011;20617;49.476;10.986;2023-07-29T07:50:45;3.17;;;1.80;;
12878;SDS011;20617;49.476;10.986;2023-07-29T07:52:53;3.10;;;1.70;;
12878;SDS011;20617;49.476;10.986;2023-07-29T07:57:03;3.60;;;1.90;;
12878;SDS011;20617;49.476;10.986;2023-07-29T07:59:08;5.82;;;2.10;;
12878;SDS011;20617;49.476;10.986;2023-07-29T08:01:17;3.80;;;1.95;;
12878;SDS011;20617;49.476;10.986;2023-07-29T08:03:22;4.95;;;2.05;;
12878;SDS011;20617;49.476;10.986;2023-07-29T08:05:30;4.63;;;2.47;;
12878;SDS011;20617;49.476;10.986;2023-07-29T08:07:38;2.70;;;2.35;;
12878;SDS011;20617;49.476;10.986;2023-07-29T08:09:43;5.70;;;2.85;;
12878;SDS011;20617;49.476;10.986;2023-07-29T08:11:48;4.72;;;2.55;;
12878;SDS011;20617;49.476;10.986;2023-07-29T08:13:53;6.75;;;2.58;;
12878;SDS011;20617;49.476;10.986;2023-07-29T08:15:59;4.57;;;2.53;;
12878;SDS011;20617;49.476;10.986;2023-07-29T08:18:06;4.47;;;2.63;;
12878;SDS011;20617;49.476;10.986;2023-07-29T08:20:11;4.25;;;2.35;;
12878;SDS011;20617;49.476;10.986;2023-07-29T08:22:16;6.07;;;2.17;;
12878;SDS011;20617;49.476;10.986;2023-07-29T08:24:24;4.30;;;2.35;;
12878;SDS011;20617;49.476;10.986;2023-07-29T08:26:30;3.97;;;2.50;;
12878;SDS011;20617;49.476;10.986;2023-07-29T08:28:36;4.55;;;2.55;;
12878;SDS011;20617;49.476;10.986;2023-07-29T08:30:42;4.85;;;2.70;;
12878;SDS011;20617;49.476;10.986;2023-07-29T08:34:52;3.25;;;2.50;;
12878;SDS011;20617;49.476;10.986;2023-07-29T08:36:57;3.05;;;2.70;;
12878;SDS011;20617;49.476;10.986;2023-07-29T08:39:02;4.10;;;2.65;;
12878;SDS011;20617;49.476;10.986;2023-07-29T08:41:13;7.10;;;3.33;;
12878;SDS011;20617;49.476;10.986;2023-07-29T08:43:20;4.43;;;2.80;;
12878;SDS011;20617;49.476;10.986;2023-07-29T08:45:35;6.65;;;2.95;;
12878;SDS011;20617;49.476;10.986;2023-07-29T08:47:40;3.95;;;2.72;;
12878;SDS011;20617;49.476;10.986;2023-07-29T08:49:46;4.00;;;2.30;;
12878;SDS011;20617;49.476;10.986;2023-07-29T08:51:52;3.92;;;2.75;;
12878;SDS011;20617;49.476;10.986;2023-07-29T08:53:58;3.25;;;2.40;;
12878;SDS011;20617;49.476;10.986;2023-07-29T08:56:04;4.28;;;2.47;;
12878;SDS011;20617;49.476;10.986;2023-07-29T08:58:12;3.92;;;2.03;;
12878;SDS011;20617;49.476;10.986;2023-07-29T09:00:18;3.25;;;2.38;;
12878;SDS011;20617;49.476;10.986;2023-07-29T09:02:25;4.40;;;1.70;;
12878;SDS011;20617;49.476;10.986;2023-07-29T09:04:31;2.33;;;1.65;;
12878;SDS011;20617;49.476;10.986;2023-07-29T09:08:40;1.52;;;1.30;;
12878;SDS011;20617;49.476;10.986;2023-07-29T09:12:50;2.70;;;1.70;;
12878;SDS011;20617;49.476;10.986;2023-07-29T09:17:06;2.67;;;1.60;;
12878;SDS011;20617;49.476;10.986;2023-07-29T09:19:12;1.60;;;1.25;;
12878;SDS011;20617;49.476;10.986;2023-07-29T09:23:25;1.70;;;1.50;;
12878;SDS011;20617;49.476;10.986;2023-07-29T09:25:30;2.33;;;1.80;;
12878;SDS011;20617;49.476;10.986;2023-07-29T09:27:33;3.50;;;1.98;;
12878;SDS011;20617;49.476;10.986;2023-07-29T09:29:41;2.65;;;1.75;;
12878;SDS011;20617;49.476;10.986;2023-07-29T09:33:55;3.08;;;1.65;;
12878;SDS011;20617;49.476;10.986;2023-07-29T09:36:02;1.67;;;1.27;;
12878;SDS011;20617;49.476;10.986;2023-07-29T09:38:15;2.40;;;1.50;;
12878;SDS011;20617;49.476;10.986;2023-07-29T09:40:20;2.80;;;1.23;;
12878;SDS011;20617;49.476;10.986;2023-07-29T09:44:32;2.47;;;1.75;;
12878;SDS011;20617;49.476;10.986;2023-07-29T09:46:40;1.75;;;1.58;;
12878;SDS011;20617;49.476;10.986;2023-07-29T09:50:52;2.22;;;1.38;;
12878;SDS011;20617;49.476;10.986;2023-07-29T09:55:05;1.90;;;1.60;;
12878;SDS011;20617;49.476;10.986;2023-07-29T09:57:10;2.30;;;1.70;;
12878;SDS011;20617;49.476;10.986;2023-07-29T09:59:18;3.78;;;1.70;;
12878;SDS011;20617;49.476;10.986;2023-07-29T10:01:27;3.40;;;1.50;;
12878;SDS011;20617;49.476;10.986;2023-07-29T10:03:33;2.17;;;1.38;;
12878;SDS011;20617;49.476;10.986;2023-07-29T10:05:41;3.70;;;1.58;;
12878;SDS011;20617;49.476;10.986;2023-07-29T10:07:49;2.33;;;1.98;;
12878;SDS011;20617;49.476;10.986;2023-07-29T10:09:55;2.05;;;1.55;;
12878;SDS011;20617;49.476;10.986;2023-07-29T10:12:02;2.60;;;2.03;;
12878;SDS011;20617;49.476;10.986;2023-07-29T10:14:12;2.80;;;1.90;;
12878;SDS011;20617;49.476;10.986;2023-07-29T10:16:18;2.83;;;1.90;;
12878;SDS011;20617;49.476;10.986;2023-07-29T10:18:24;2.10;;;1.90;;
12878;SDS011;20617;49.476;10.986;2023-07-29T10:20:30;4.30;;;2.10;;
12878;SDS011;20617;49.476;10.986;2023-07-29T10:22:40;3.22;;;1.58;;
12878;SDS011;20617;49.476;10.986;2023-07-29T10:24:46;4.65;;;2.15;;
12878;SDS011;20617;49.476;10.986;2023-07-29T10:26:53;2.63;;;1.90;;
12878;SDS011;20617;49.476;10.986;2023-07-29T10:29:03;4.38;;;2.05;;
12878;SDS011;20617;49.476;10.986;2023-07-29T10:31:11;2.85;;;1.95;;
12878;SDS011;20617;49.476;10.986;2023-07-29T10:33:18;2.22;;;2.00;;
12878;SDS011;20617;49.476;10.986;2023-07-29T10:35:21;3.97;;;2.20;;
12878;SDS011;20617;49.476;10.986;2023-07-29T10:37:27;2.63;;;1.80;;
12878;SDS011;20617;49.476;10.986;2023-07-29T10:39:40;3.13;;;1.50;;
12878;SDS011;20617;49.476;10.986;2023-07-29T10:41:56;3.92;;;1.90;;
12878;SDS011;20617;49.476;10.986;2023-07-29T10:44:03;5.10;;;1.60;;
12878;SDS011;20617;49.476;10.986;2023-07-29T10:46:15;4.25;;;2.10;;
12878;SDS011;20617;49.476;10.986;2023-07-29T10:53:34;3.67;;;2.10;;
12878;SDS011;20617;49.476;10.986;2023-07-29T10:55:44;2.10;;;1.77;;
12878;SDS011;20617;49.476;10.986;2023-07-29T10:57:49;4.00;;;2.00;;
12878;SDS011;20617;49.476;10.986;2023-07-29T10:59:55;3.20;;;2.58;;
12878;SDS011;20617;49.476;10.986;2023-07-29T11:02:02;1.92;;;1.60;;
12878;SDS011;20617;49.476;10.986;2023-07-29T11:04:22;2.72;;;1.60;;
12878;SDS011;20617;49.476;10.986;2023-07-29T11:06:28;2.80;;;1.80;;
12878;SDS011;20617;49.476;10.986;2023-07-29T11:10:44;3.30;;;2.00;;
12878;SDS011;20617;49.476;10.986;2023-07-29T11:13:02;2.78;;;1.60;;
12878;SDS011;20617;49.476;10.986;2023-07-29T11:15:12;3.40;;;1.70;;
12878;SDS011;20617;49.476;10.986;2023-07-29T11:17:22;1.98;;;1.70;;
12878;SDS011;20617;49.476;10.986;2023-07-29T11:19:27;2.15;;;1.50;;
12878;SDS011;20617;49.476;10.986;2023-07-29T11:21:33;3.75;;;1.73;;
12878;SDS011;20617;49.476;10.986;2023-07-29T11:23:38;3.30;;;1.17;;
12878;SDS011;20617;49.476;10.986;2023-07-29T11:27:51;1.80;;;1.63;;
12878;SDS011;20617;49.476;10.986;2023-07-29T11:29:57;2.65;;;1.70;;
12878;SDS011;20617;49.476;10.986;2023-07-29T11:32:00;3.00;;;1.60;;
12878;SDS011;20617;49.476;10.986;2023-07-29T11:34:07;2.60;;;1.50;;
12878;SDS011;20617;49.476;10.986;2023-07-29T11:36:17;6.85;;;1.48;;
12878;SDS011;20617;49.476;10.986;2023-07-29T11:38:23;1.85;;;1.60;;
12878;SDS011;20617;49.476;10.986;2023-07-29T11:40:31;1.92;;;1.30;;
12878;SDS011;20617;49.476;10.986;2023-07-29T11:42:40;4.43;;;1.58;;
12878;SDS011;20617;49.476;10.986;2023-07-29T11:44:49;1.30;;;1.20;;
12878;SDS011;20617;49.476;10.986;2023-07-29T11:46:54;2.17;;;1.50;;
12878;SDS011;20617;49.476;10.986;2023-07-29T11:48:59;1.50;;;1.30;;
12878;SDS011;20617;49.476;10.986;2023-07-29T11:51:05;1.83;;;1.63;;
12878;SDS011;20617;49.476;10.986;2023-07-29T11:53:13;1.60;;;1.50;;
12878;SDS011;20617;49.476;10.986;2023-07-29T11:55:20;1.30;;;1.20;;
12878;SDS011;20617;49.476;10.986;2023-07-29T11:57:27;1.88;;;1.63;;
12878;SDS011;20617;49.476;10.986;2023-07-29T11:59:36;2.05;;;1.70;;
12878;SDS011;20617;49.476;10.986;2023-07-29T12:01:42;4.57;;;1.70;;
12878;SDS011;20617;49.476;10.986;2023-07-29T12:03:51;3.90;;;1.70;;
12878;SDS011;20617;49.476;10.986;2023-07-29T12:05:56;5.18;;;1.42;;
12878;SDS011;20617;49.476;10.986;2023-07-29T12:08:02;3.03;;;1.55;;
12878;SDS011;20617;49.476;10.986;2023-07-29T12:10:08;1.83;;;1.58;;
12878;SDS011;20617;49.476;10.986;2023-07-29T12:12:14;1.60;;;1.40;;
12878;SDS011;20617;49.476;10.986;2023-07-29T12:14:22;2.25;;;1.30;;
12878;SDS011;20617;49.476;10.986;2023-07-29T12:16:33;1.95;;;1.38;;
12878;SDS011;20617;49.476;10.986;2023-07-29T12:18:45;1.83;;;1.50;;
12878;SDS011;20617;49.476;10.986;2023-07-29T12:20:50;2.75;;;1.70;;
12878;SDS011;20617;49.476;10.986;2023-07-29T12:25:03;1.40;;;1.30;;
12878;SDS011;20617;49.476;10.986;2023-07-29T12:27:12;4.68;;;1.90;;
12878;SDS011;20617;49.476;10.986;2023-07-29T12:29:18;1.92;;;1.50;;
12878;SDS011;20617;49.476;10.986;2023-07-29T12:31:33;2.30;;;1.40;;
12878;SDS011;20617;49.476;10.986;2023-07-29T12:33:42;2.08;;;1.45;;
12878;SDS011;20617;49.476;10.986;2023-07-29T12:35:47;1.92;;;1.30;;
12878;SDS011;20617;49.476;10.986;2023-07-29T12:37:58;3.30;;;1.55;;
12878;SDS011;20617;49.476;10.986;2023-07-29T12:40:04;1.90;;;1.52;;
12878;SDS011;20617;49.476;10.986;2023-07-29T12:42:12;2.13;;;1.67;;
12878;SDS011;20617;49.476;10.986;2023-07-29T12:46:22;1.85;;;1.30;;
12878;SDS011;20617;49.476;10.986;2023-07-29T12:48:29;10.27;;;2.38;;
12878;SDS011;20617;49.476;10.986;2023-07-29T12:50:37;1.42;;;1.33;;
12878;SDS011;20617;49.476;10.986;2023-07-29T12:52:42;1.30;;;1.20;;
12878;SDS011;20617;49.476;10.986;2023-07-29T12:54:48;1.73;;;1.63;;
12878;SDS011;20617;49.476;10.986;2023-07-29T12:56:53;3.25;;;2.10;;
12878;SDS011;20617;49.476;10.986;2023-07-29T12:58:58;1.83;;;1.50;;
12878;SDS011;20617;49.476;10.986;2023-07-29T13:01:03;2.17;;;1.40;;
12878;SDS011;20617;49.476;10.986;2023-07-29T13:03:08;3.42;;;1.50;;
12878;SDS011;20617;49.476;10.986;2023-07-29T13:05:17;1.30;;;1.20;;
12878;SDS011;20617;49.476;10.986;2023-07-29T13:07:22;3.25;;;1.45;;
12878;SDS011;20617;49.476;10.986;2023-07-29T13:11:32;1.88;;;1.50;;
12878;SDS011;20617;49.476;10.986;2023-07-29T13:13:37;1.60;;;1.33;;
12878;SDS011;20617;49.476;10.986;2023-07-29T13:15:45;4.80;;;1.80;;
12878;SDS011;20617;49.476;10.986;2023-07-29T13:19:55;2.00;;;1.05;;
12878;SDS011;20617;49.476;10.986;2023-07-29T13:22:04;2.50;;;1.17;;
12878;SDS011;20617;49.476;10.986;2023-07-29T13:24:10;1.50;;;1.40;;
12878;SDS011;20617;49.476;10.986;2023-07-29T13:26:16;1.58;;;1.10;;
12878;SDS011;20617;49.476;10.986;2023-07-29T13:28:24;1.92;;;1.27;;
12878;SDS011;20617;49.476;10.986;2023-07-29T13:30:30;1.67;;;1.40;;
12878;SDS011;20617;49.476;10.986;2023-07-29T13:32:35;1.95;;;1.27;;
12878;SDS011;20617;49.476;10.986;2023-07-29T13:34:40;1.90;;;1.17;;
12878;SDS011;20617;49.476;10.986;2023-07-29T13:38:52;1.30;;;1.20;;
12878;SDS011;20617;49.476;10.986;2023-07-29T13:40:57;3.15;;;1.30;;
12878;SDS011;20617;49.476;10.986;2023-07-29T13:43:04;0.90;;;0.85;;
12878;SDS011;20617;49.476;10.986;2023-07-29T13:45:12;1.63;;;1.10;;
12878;SDS011;20617;49.476;10.986;2023-07-29T13:49:22;1.95;;;1.02;;
12878;SDS011;20617;49.476;10.986;2023-07-29T13:51:28;1.38;;;1.25;;
12878;SDS011;20617;49.476;10.986;2023-07-29T13:53:31;1.65;;;1.10;;
12878;SDS011;20617;49.476;10.986;2023-07-29T13:55:39;2.45;;;1.02;;
12878;SDS011;20617;49.476;10.986;2023-07-29T13:57:44;1.40;;;1.30;;
12878;SDS011;20617;49.476;10.986;2023-07-29T13:59:49;2.05;;;1.40;;
12878;SDS011;20617;49.476;10.986;2023-07-29T14:03:59;2.50;;;1.50;;
12878;SDS011;20617;49.476;10.986;2023-07-29T14:08:09;1.15;;;1.00;;
12878;SDS011;20617;49.476;10.986;2023-07-29T14:10:14;0.90;;;0.90;;
12878;SDS011;20617;49.476;10.986;2023-07-29T14:12:23;1.70;;;1.00;;
12878;SDS011;20617;49.476;10.986;2023-07-29T14:14:28;1.73;;;1.08;;
12878;SDS011;20617;49.476;10.986;2023-07-29T14:18:38;2.17;;;0.98;;
12878;SDS011;20617;49.476;10.986;2023-07-29T14:20:43;1.10;;;0.88;;
12878;SDS011;20617;49.476;10.986;2023-07-29T14:22:48;1.52;;;1.05;;
12878;SDS011;20617;49.476;10.986;2023-07-29T14:27:02;0.70;;;0.70;;
12878;SDS011;20617;49.476;10.986;2023-07-29T14:29:10;0.90;;;0.90;;
12878;SDS011;20617;49.476;10.986;2023-07-29T14:31:17;1.85;;;0.90;;
12878;SDS011;20617;49.476;10.986;2023-07-29T14:33:24;1.95;;;0.88;;
12878;SDS011;20617;49.476;10.986;2023-07-29T14:35:29;0.80;;;0.80;;
12878;SDS011;20617;49.476;10.986;2023-07-29T14:37:43;2.97;;;0.90;;
12878;SDS011;20617;49.476;10.986;2023-07-29T14:39:48;1.05;;;0.93;;
12878;SDS011;20617;49.476;10.986;2023-07-29T14:41:57;2.47;;;1.00;;